Quimperlé, Foret de Toulfoen (29) - K

Date : 02/11/2012
Distance : 4,000 km

Place Nom Licence Catégorie Club Temps min/km CN à J-60 Points Différence Nouveau CN
1 DROIN Solène 17925 D16 4201RA 0:30:03 7'30 5152 5533 +381 5782
2 GIRARD Lucille 19689 D16 3705CE 0:32:29 8'07 5057 5119 +62 5065
3 BEAUVIR Maëlle 12709 D16 3502BR 0:32:30 8'07 4940 5116 +176 5295
4 HABERKORN Chloé 10396 D16 2105BO 0:33:15 8'18 5737 5001 -736 5652
5 BORNARD Julie 9402 D16 7305RA 0:34:33 8'38 4755 4812 +57 4688
6 BERRARD Anna 19762 D16 2607RA 0:35:13 8'48 4423 4721 +298 4827
7 LOTERIE Laurine 7045 D20 5907NO 0:35:30 8'52 5669 4684 -985 5715
8 LUTHRINGER Coline 10091 D16 8809LO 0:36:48 9'12 4381 4518 +137 4429
9 DUQUENNE Audrey 23885 D16 5907NO 0:37:24 9'21 3734 4446 +712 4119
10 PETER-JAN Lucile 19276 D16 3705CE 0:37:55 9'28 4539 4385 -154 4649
11 VALETTE Marion 10430 D16 6913RA 0:38:55 9'43 3868 4272 +404 4151
12 BONDIVENNE Perrine 8914 D16 6408AQ 0:38:59 9'44 4916 4265 -651 5009
13 BODY Mathilde 10184 D16 7305RA 0:39:42 9'55 5328 4188 -1140 5214
14 ROULLEAUX Julie 11559 D16 9105IF 0:40:14 10'03 4799 4133 -666 4854
15 FOL Loreline 16393 D16 3105MP 0:41:16 10'19 4263 4029 -234 4326
16 STARKE Paula 26505 D16 6913RA 0:41:42 10'25 3987 4259
17 GUINOT Marion 15018 D16 2108BO 0:42:14 10'33 0 3937 3964
18 CRETE Juliette 18829 D16 6008PI 0:44:05 11'01 3141 3772 +631 3764
19 BESTEL Sandra 10758 D16 9105IF 0:44:28 11'07 3840 3739 -101 3876
20 MOLINIER Caroline 6487 D16 9105IF 0:44:41 11'10 4246 3721 -525 4277
21 GUILLOT Jeanne 20364 D16 7004FC 0:46:00 11'30 3219 3615 +396 3406
22 PICAZO Marie 16555 D16 8405PR 0:46:52 11'43 4159 3548 -611 4260
23 BUCAMP Noémie 25200 D16 6008PI 0:47:12 11'48 2055 3523 +1468 3419
24 VASILYEVA Véronika 25923 D16 5402LO 0:47:40 11'55 2762 3488 +726 3832
25 ELIAS Pauline 16137 D16 1307PR 0:48:17 12'04 3756 3444 -312 3953
26 LECUYER Manon 22549 D16 5907NO 0:48:42 12'10 2796 3414 +618 3386
27 BASSET Fiona 23384 D16 6911RA 0:48:52 12'13 4275 3403 -872 4528
28 ANGLADE Lucile 21188 D16 5604BR 0:49:37 12'24 3832 3351 -481 3997
29 MOREL Fanny 25556 D16 9502IF 0:49:47 12'26 1838 3340 +1502 2695
30 RIVOLLIER Isaline 22451 D16 4201RA 0:49:56 12'29 4296 3330 -966 4148
31 SOUAN Cécile 26423 D16 7707IF 0:50:46 12'41 2051 3275 +1224 3070
32 DELAPORTE Léa 20067 D16 5116CA 0:52:50 13'12 3241 3147 -94 3606
33 DELVA Lou 26620 D16 7407RA 0:54:57 13'44 3026 2594
34 DASILVA Auriane 12758 D16 7707IF 0:55:24 13'51 2538 3001 +463 2944
35 ALLE Capucine 25922 D16 5402LO 0:58:23 14'35 1257 2848 +1591 2730
36 JEANNERET Julie 20160 D16 7109BO 0:58:44 14'41 2196 2831 +635 2762
37 DUFOUR Marie 26623 D16 7407RA 1:01:09 15'17 2719 2400
38 BERCHE Léa 24420 D16 5907NO 1:04:55 16'13 3053 2561 -492 2916
39 BULLIER Alisson 23427 D16 0207PI 1:05:00 16'15 2590 2558 -32 2887
40 DESCOURVIERES Perrine 25550 D16 7407RA 1:06:10 16'32 1928 2513 +585 2478
41 DOUTRELANT Justine 26929 D16 5907NO 1:08:41 17'10 2421 2316
42 MORIN Lucie 23393 D16 2208BR 1:11:15 17'48 1549 2334 +785 1999
43 FIGARD Cécile 26475 D16 7707IF 1:41:14 25'18 0 1642 1858